KCDW/CDW METAR and TAF weather

Enter ICAO airport designator
Station Type Date Time Source
KCDW METAR 2020/03/31 09:30 UTC NOAA

KCDW 310930Z AUTO 08006KT 10SM SCT006 OVC015 06/04 A3000 RMK AO2 T00610044


Station Type Date Time Source
KCDW Decoded METAR 2020/03/31 09:30 UTC NOAA

CALDWELL ESSEX COUNTY AIRPORT , NJ, United States (KCDW) 40-53N 074-17W 64M
Mar 31, 2020 - 05:30 AM EDT / 2020.03.31 0930 UTC
Wind: from the E (080 degrees) at 7 MPH (6 KT):0
Visibility: 10 mile(s):0
Sky conditions: overcast
Temperature: 43.0 F (6.1 C)
Dew Point: 39.9 F (4.4 C)
Relative Humidity: 88%
Pressure (altimeter): 30 in. Hg (1015 hPa)
ob: KCDW 310930Z AUTO 08006KT 10SM SCT006 OVC015 06/04 A3000 RMK AO2 T00610044
cycle: 9

Station Type Date Time Source
KCDW TAF UTC NOAA

Error!

Example: see airport list